sensor_id;sensor_type;location;lat;lon;timestamp;P1;durP1;ratioP1;P2;durP2;ratioP2
12129;SDS011;6128;59.340;18.040;2023-04-01T00:01:12;2.10;;;0.90;;
12129;SDS011;6128;59.340;18.040;2023-04-01T00:03:40;1.13;;;1.10;;
12129;SDS011;6128;59.340;18.040;2023-04-01T00:06:08;1.27;;;0.90;;
12129;SDS011;6128;59.340;18.040;2023-04-01T00:08:37;1.67;;;0.90;;
12129;SDS011;6128;59.340;18.040;2023-04-01T00:11:05;1.57;;;1.17;;
12129;SDS011;6128;59.340;18.040;2023-04-01T00:13:32;1.00;;;0.90;;
12129;SDS011;6128;59.340;18.040;2023-04-01T00:15:59;1.07;;;1.00;;
12129;SDS011;6128;59.340;18.040;2023-04-01T00:18:28;1.67;;;1.27;;
12129;SDS011;6128;59.340;18.040;2023-04-01T00:20:55;1.63;;;0.83;;
12129;SDS011;6128;59.340;18.040;2023-04-01T00:23:23;1.20;;;1.10;;
12129;SDS011;6128;59.340;18.040;2023-04-01T00:25:52;3.13;;;1.00;;
12129;SDS011;6128;59.340;18.040;2023-04-01T00:28:19;1.17;;;1.00;;
12129;SDS011;6128;59.340;18.040;2023-04-01T00:30:46;1.53;;;1.00;;
12129;SDS011;6128;59.340;18.040;2023-04-01T00:33:14;1.27;;;0.97;;
12129;SDS011;6128;59.340;18.040;2023-04-01T00:35:42;0.83;;;0.83;;
12129;SDS011;6128;59.340;18.040;2023-04-01T00:38:09;2.40;;;1.00;;
12129;SDS011;6128;59.340;18.040;2023-04-01T00:40:39;1.23;;;0.77;;
12129;SDS011;6128;59.340;18.040;2023-04-01T00:43:11;1.13;;;0.60;;
12129;SDS011;6128;59.340;18.040;2023-04-01T00:45:40;1.50;;;1.10;;
12129;SDS011;6128;59.340;18.040;2023-04-01T00:48:10;1.10;;;1.00;;
12129;SDS011;6128;59.340;18.040;2023-04-01T00:50:40;1.63;;;1.07;;
12129;SDS011;6128;59.340;18.040;2023-04-01T00:53:10;1.77;;;1.10;;
12129;SDS011;6128;59.340;18.040;2023-04-01T00:55:41;1.67;;;0.87;;
12129;SDS011;6128;59.340;18.040;2023-04-01T00:58:14;0.87;;;0.70;;
12129;SDS011;6128;59.340;18.040;2023-04-01T01:00:45;1.40;;;1.30;;
12129;SDS011;6128;59.340;18.040;2023-04-01T01:03:15;1.53;;;1.10;;
12129;SDS011;6128;59.340;18.040;2023-04-01T01:05:47;4.00;;;1.30;;
12129;SDS011;6128;59.340;18.040;2023-04-01T01:08:30;1.00;;;0.80;;
12129;SDS011;6128;59.340;18.040;2023-04-01T01:11:08;1.77;;;1.00;;
12129;SDS011;6128;59.340;18.040;2023-04-01T01:13:39;1.00;;;0.93;;
12129;SDS011;6128;59.340;18.040;2023-04-01T01:16:10;1.43;;;1.07;;
12129;SDS011;6128;59.340;18.040;2023-04-01T01:18:43;0.80;;;0.80;;
12129;SDS011;6128;59.340;18.040;2023-04-01T01:21:21;1.57;;;1.10;;
12129;SDS011;6128;59.340;18.040;2023-04-01T01:24:13;1.70;;;0.90;;
12129;SDS011;6128;59.340;18.040;2023-04-01T01:27:12;1.43;;;1.33;;
12129;SDS011;6128;59.340;18.040;2023-04-01T01:32:42;2.10;;;0.90;;
12129;SDS011;6128;59.340;18.040;2023-04-01T01:35:27;1.60;;;0.90;;
12129;SDS011;6128;59.340;18.040;2023-04-01T01:38:03;1.13;;;0.93;;
12129;SDS011;6128;59.340;18.040;2023-04-01T01:40:32;1.17;;;1.07;;
12129;SDS011;6128;59.340;18.040;2023-04-01T01:43:03;2.83;;;1.60;;
12129;SDS011;6128;59.340;18.040;2023-04-01T01:45:33;1.10;;;1.00;;
12129;SDS011;6128;59.340;18.040;2023-04-01T01:48:04;1.70;;;0.83;;
12129;SDS011;6128;59.340;18.040;2023-04-01T01:50:34;2.60;;;0.87;;
12129;SDS011;6128;59.340;18.040;2023-04-01T01:53:03;1.60;;;1.13;;
12129;SDS011;6128;59.340;18.040;2023-04-01T01:55:32;0.73;;;0.70;;
12129;SDS011;6128;59.340;18.040;2023-04-01T01:58:01;1.40;;;0.83;;
12129;SDS011;6128;59.340;18.040;2023-04-01T02:00:32;1.57;;;1.20;;
12129;SDS011;6128;59.340;18.040;2023-04-01T02:03:00;0.90;;;0.90;;
12129;SDS011;6128;59.340;18.040;2023-04-01T02:05:28;1.07;;;0.90;;
12129;SDS011;6128;59.340;18.040;2023-04-01T02:08:00;1.20;;;1.10;;
12129;SDS011;6128;59.340;18.040;2023-04-01T02:10:31;3.30;;;1.20;;
12129;SDS011;6128;59.340;18.040;2023-04-01T02:13:04;1.40;;;0.90;;
12129;SDS011;6128;59.340;18.040;2023-04-01T02:15:37;1.93;;;1.40;;
12129;SDS011;6128;59.340;18.040;2023-04-01T02:18:09;1.33;;;0.93;;
12129;SDS011;6128;59.340;18.040;2023-04-01T02:20:37;1.17;;;1.03;;
12129;SDS011;6128;59.340;18.040;2023-04-01T02:23:07;1.47;;;1.13;;
12129;SDS011;6128;59.340;18.040;2023-04-01T02:25:36;1.30;;;1.00;;
12129;SDS011;6128;59.340;18.040;2023-04-01T02:28:06;1.33;;;1.23;;
12129;SDS011;6128;59.340;18.040;2023-04-01T02:30:36;1.77;;;1.43;;
12129;SDS011;6128;59.340;18.040;2023-04-01T02:33:05;1.40;;;1.10;;
12129;SDS011;6128;59.340;18.040;2023-04-01T02:35:34;1.13;;;0.90;;
12129;SDS011;6128;59.340;18.040;2023-04-01T02:38:02;2.40;;;0.87;;
12129;SDS011;6128;59.340;18.040;2023-04-01T02:40:41;1.00;;;0.90;;
12129;SDS011;6128;59.340;18.040;2023-04-01T02:43:11;1.70;;;1.20;;
12129;SDS011;6128;59.340;18.040;2023-04-01T02:45:38;2.40;;;1.00;;
12129;SDS011;6128;59.340;18.040;2023-04-01T02:48:05;1.13;;;1.00;;
12129;SDS011;6128;59.340;18.040;2023-04-01T02:50:32;0.87;;;0.70;;
12129;SDS011;6128;59.340;18.040;2023-04-01T02:53:00;2.27;;;1.10;;
12129;SDS011;6128;59.340;18.040;2023-04-01T02:55:28;1.37;;;0.93;;
12129;SDS011;6128;59.340;18.040;2023-04-01T02:57:57;1.40;;;0.80;;
12129;SDS011;6128;59.340;18.040;2023-04-01T03:00:25;0.77;;;0.77;;
12129;SDS011;6128;59.340;18.040;2023-04-01T03:02:52;1.00;;;1.00;;
12129;SDS011;6128;59.340;18.040;2023-04-01T03:05:19;2.17;;;1.17;;
12129;SDS011;6128;59.340;18.040;2023-04-01T03:07:47;1.17;;;1.07;;
12129;SDS011;6128;59.340;18.040;2023-04-01T03:10:14;0.97;;;0.90;;
12129;SDS011;6128;59.340;18.040;2023-04-01T03:12:41;1.57;;;0.90;;
12129;SDS011;6128;59.340;18.040;2023-04-01T03:15:11;1.10;;;0.80;;
12129;SDS011;6128;59.340;18.040;2023-04-01T03:17:39;1.23;;;1.10;;
12129;SDS011;6128;59.340;18.040;2023-04-01T03:20:08;1.23;;;1.03;;
12129;SDS011;6128;59.340;18.040;2023-04-01T03:22:36;2.10;;;1.10;;
12129;SDS011;6128;59.340;18.040;2023-04-01T03:25:03;1.70;;;1.20;;
12129;SDS011;6128;59.340;18.040;2023-04-01T03:27:32;1.00;;;0.90;;
12129;SDS011;6128;59.340;18.040;2023-04-01T03:30:00;1.20;;;1.10;;
12129;SDS011;6128;59.340;18.040;2023-04-01T03:32:29;0.90;;;0.80;;
12129;SDS011;6128;59.340;18.040;2023-04-01T03:34:56;2.47;;;1.30;;
12129;SDS011;6128;59.340;18.040;2023-04-01T03:37:24;0.73;;;0.73;;
12129;SDS011;6128;59.340;18.040;2023-04-01T03:39:51;1.07;;;0.97;;
12129;SDS011;6128;59.340;18.040;2023-04-01T03:42:18;1.23;;;1.00;;
12129;SDS011;6128;59.340;18.040;2023-04-01T03:44:45;1.20;;;1.10;;
12129;SDS011;6128;59.340;18.040;2023-04-01T03:47:13;1.03;;;0.93;;
12129;SDS011;6128;59.340;18.040;2023-04-01T03:49:46;0.93;;;0.90;;
12129;SDS011;6128;59.340;18.040;2023-04-01T03:52:13;1.13;;;1.03;;
12129;SDS011;6128;59.340;18.040;2023-04-01T03:54:41;1.50;;;0.80;;
12129;SDS011;6128;59.340;18.040;2023-04-01T03:57:08;0.90;;;0.90;;
12129;SDS011;6128;59.340;18.040;2023-04-01T03:59:35;2.80;;;1.10;;
12129;SDS011;6128;59.340;18.040;2023-04-01T04:02:02;1.57;;;1.20;;
12129;SDS011;6128;59.340;18.040;2023-04-01T04:04:30;1.07;;;0.83;;
12129;SDS011;6128;59.340;18.040;2023-04-01T04:06:59;0.80;;;0.70;;
12129;SDS011;6128;59.340;18.040;2023-04-01T04:09:26;1.27;;;0.83;;
12129;SDS011;6128;59.340;18.040;2023-04-01T04:11:53;2.17;;;1.17;;
12129;SDS011;6128;59.340;18.040;2023-04-01T04:14:20;1.00;;;0.87;;
12129;SDS011;6128;59.340;18.040;2023-04-01T04:16:47;2.27;;;1.23;;
12129;SDS011;6128;59.340;18.040;2023-04-01T04:19:14;1.23;;;1.07;;
12129;SDS011;6128;59.340;18.040;2023-04-01T04:21:41;1.10;;;0.83;;
12129;SDS011;6128;59.340;18.040;2023-04-01T04:24:10;1.60;;;1.10;;
12129;SDS011;6128;59.340;18.040;2023-04-01T04:26:37;1.10;;;1.00;;
12129;SDS011;6128;59.340;18.040;2023-04-01T04:29:04;1.10;;;1.00;;
12129;SDS011;6128;59.340;18.040;2023-04-01T04:31:32;1.40;;;1.00;;
12129;SDS011;6128;59.340;18.040;2023-04-01T04:34:00;1.37;;;1.10;;
12129;SDS011;6128;59.340;18.040;2023-04-01T04:36:27;1.37;;;1.00;;
12129;SDS011;6128;59.340;18.040;2023-04-01T04:38:54;1.20;;;1.10;;
12129;SDS011;6128;59.340;18.040;2023-04-01T04:41:24;1.10;;;1.00;;
12129;SDS011;6128;59.340;18.040;2023-04-01T04:43:52;1.50;;;0.90;;
12129;SDS011;6128;59.340;18.040;2023-04-01T04:46:20;1.83;;;1.10;;
12129;SDS011;6128;59.340;18.040;2023-04-01T04:48:48;1.10;;;0.97;;
12129;SDS011;6128;59.340;18.040;2023-04-01T04:51:15;2.00;;;1.40;;
12129;SDS011;6128;59.340;18.040;2023-04-01T04:53:43;1.80;;;1.30;;
12129;SDS011;6128;59.340;18.040;2023-04-01T04:56:11;1.00;;;0.90;;
12129;SDS011;6128;59.340;18.040;2023-04-01T04:58:40;1.60;;;1.13;;
12129;SDS011;6128;59.340;18.040;2023-04-01T05:01:08;1.17;;;1.07;;
12129;SDS011;6128;59.340;18.040;2023-04-01T05:03:36;1.33;;;1.10;;
12129;SDS011;6128;59.340;18.040;2023-04-01T05:06:04;3.07;;;1.00;;
12129;SDS011;6128;59.340;18.040;2023-04-01T05:08:32;0.97;;;0.90;;
12129;SDS011;6128;59.340;18.040;2023-04-01T05:11:00;1.53;;;0.97;;
12129;SDS011;6128;59.340;18.040;2023-04-01T05:13:27;0.93;;;0.83;;
12129;SDS011;6128;59.340;18.040;2023-04-01T05:15:56;1.93;;;0.90;;
12129;SDS011;6128;59.340;18.040;2023-04-01T05:18:23;1.33;;;1.23;;
12129;SDS011;6128;59.340;18.040;2023-04-01T05:20:51;2.00;;;0.77;;
12129;SDS011;6128;59.340;18.040;2023-04-01T05:23:20;1.30;;;0.90;;
12129;SDS011;6128;59.340;18.040;2023-04-01T05:25:48;1.97;;;1.00;;
12129;SDS011;6128;59.340;18.040;2023-04-01T05:28:18;1.07;;;0.97;;
12129;SDS011;6128;59.340;18.040;2023-04-01T05:30:46;1.90;;;1.10;;
12129;SDS011;6128;59.340;18.040;2023-04-01T05:33:14;2.83;;;0.90;;
12129;SDS011;6128;59.340;18.040;2023-04-01T05:35:41;2.70;;;1.57;;
12129;SDS011;6128;59.340;18.040;2023-04-01T05:38:09;2.23;;;1.57;;
12129;SDS011;6128;59.340;18.040;2023-04-01T05:40:36;0.97;;;0.97;;
12129;SDS011;6128;59.340;18.040;2023-04-01T05:43:03;1.70;;;1.07;;
12129;SDS011;6128;59.340;18.040;2023-04-01T05:45:30;1.67;;;1.20;;
12129;SDS011;6128;59.340;18.040;2023-04-01T05:47:58;2.10;;;0.93;;
12129;SDS011;6128;59.340;18.040;2023-04-01T05:50:27;1.17;;;0.80;;
12129;SDS011;6128;59.340;18.040;2023-04-01T05:52:54;1.07;;;0.97;;
12129;SDS011;6128;59.340;18.040;2023-04-01T05:55:22;1.03;;;0.80;;
12129;SDS011;6128;59.340;18.040;2023-04-01T05:57:49;3.70;;;0.83;;
12129;SDS011;6128;59.340;18.040;2023-04-01T06:00:16;0.83;;;0.70;;
12129;SDS011;6128;59.340;18.040;2023-04-01T06:02:44;1.67;;;0.90;;
12129;SDS011;6128;59.340;18.040;2023-04-01T06:05:14;1.30;;;0.90;;
12129;SDS011;6128;59.340;18.040;2023-04-01T06:07:45;0.77;;;0.67;;
12129;SDS011;6128;59.340;18.040;2023-04-01T06:10:13;1.43;;;0.70;;
12129;SDS011;6128;59.340;18.040;2023-04-01T06:12:50;2.47;;;1.03;;
12129;SDS011;6128;59.340;18.040;2023-04-01T06:15:25;1.77;;;0.90;;
12129;SDS011;6128;59.340;18.040;2023-04-01T06:20:57;1.10;;;0.93;;
12129;SDS011;6128;59.340;18.040;2023-04-01T06:23:39;2.97;;;0.90;;
12129;SDS011;6128;59.340;18.040;2023-04-01T06:26:18;1.40;;;1.20;;
12129;SDS011;6128;59.340;18.040;2023-04-01T06:32:06;1.80;;;0.87;;
12129;SDS011;6128;59.340;18.040;2023-04-01T06:37:48;2.80;;;1.40;;
12129;SDS011;6128;59.340;18.040;2023-04-01T06:40:36;1.53;;;0.87;;
12129;SDS011;6128;59.340;18.040;2023-04-01T06:43:21;1.50;;;0.80;;
12129;SDS011;6128;59.340;18.040;2023-04-01T06:46:00;0.63;;;0.50;;
12129;SDS011;6128;59.340;18.040;2023-04-01T06:48:39;1.30;;;0.97;;
12129;SDS011;6128;59.340;18.040;2023-04-01T06:51:17;1.37;;;0.80;;
12129;SDS011;6128;59.340;18.040;2023-04-01T06:53:54;0.93;;;0.80;;
12129;SDS011;6128;59.340;18.040;2023-04-01T06:56:27;0.63;;;0.63;;
12129;SDS011;6128;59.340;18.040;2023-04-01T06:58:56;0.60;;;0.60;;
12129;SDS011;6128;59.340;18.040;2023-04-01T07:01:28;0.70;;;0.50;;
12129;SDS011;6128;59.340;18.040;2023-04-01T07:04:00;1.40;;;0.80;;
12129;SDS011;6128;59.340;18.040;2023-04-01T07:06:32;0.60;;;0.60;;
12129;SDS011;6128;59.340;18.040;2023-04-01T07:09:04;1.60;;;0.67;;
12129;SDS011;6128;59.340;18.040;2023-04-01T07:11:37;1.33;;;0.50;;
12129;SDS011;6128;59.340;18.040;2023-04-01T07:14:06;2.83;;;0.50;;
12129;SDS011;6128;59.340;18.040;2023-04-01T07:16:43;1.40;;;0.70;;
12129;SDS011;6128;59.340;18.040;2023-04-01T07:19:16;1.03;;;0.50;;
12129;SDS011;6128;59.340;18.040;2023-04-01T07:21:48;0.50;;;0.50;;
12129;SDS011;6128;59.340;18.040;2023-04-01T07:24:21;1.90;;;0.60;;
12129;SDS011;6128;59.340;18.040;2023-04-01T07:26:54;0.80;;;0.53;;
12129;SDS011;6128;59.340;18.040;2023-04-01T07:29:22;0.80;;;0.53;;
12129;SDS011;6128;59.340;18.040;2023-04-01T07:32:09;1.00;;;0.47;;
12129;SDS011;6128;59.340;18.040;2023-04-01T07:34:50;1.37;;;0.90;;
12129;SDS011;6128;59.340;18.040;2023-04-01T07:37:28;0.70;;;0.50;;
12129;SDS011;6128;59.340;18.040;2023-04-01T07:40:03;1.07;;;0.60;;
12129;SDS011;6128;59.340;18.040;2023-04-01T07:42:45;1.40;;;0.70;;
12129;SDS011;6128;59.340;18.040;2023-04-01T07:45:24;1.57;;;0.60;;
12129;SDS011;6128;59.340;18.040;2023-04-01T07:48:05;2.17;;;0.80;;
12129;SDS011;6128;59.340;18.040;2023-04-01T07:50:45;0.93;;;0.40;;
12129;SDS011;6128;59.340;18.040;2023-04-01T07:53:21;0.63;;;0.40;;
12129;SDS011;6128;59.340;18.040;2023-04-01T07:55:55;2.20;;;0.70;;
12129;SDS011;6128;59.340;18.040;2023-04-01T07:58:31;3.23;;;0.83;;
12129;SDS011;6128;59.340;18.040;2023-04-01T08:01:05;1.17;;;0.50;;
12129;SDS011;6128;59.340;18.040;2023-04-01T08:03:45;1.00;;;0.60;;
12129;SDS011;6128;59.340;18.040;2023-04-01T08:06:24;1.33;;;0.70;;
12129;SDS011;6128;59.340;18.040;2023-04-01T08:08:58;3.33;;;0.83;;
12129;SDS011;6128;59.340;18.040;2023-04-01T08:11:35;0.93;;;0.53;;
12129;SDS011;6128;59.340;18.040;2023-04-01T08:14:13;1.43;;;0.70;;
12129;SDS011;6128;59.340;18.040;2023-04-01T08:16:48;1.90;;;0.30;;
12129;SDS011;6128;59.340;18.040;2023-04-01T08:19:25;1.13;;;0.67;;
12129;SDS011;6128;59.340;18.040;2023-04-01T08:22:02;2.73;;;0.53;;
12129;SDS011;6128;59.340;18.040;2023-04-01T08:24:37;1.10;;;0.43;;
12129;SDS011;6128;59.340;18.040;2023-04-01T08:27:09;0.97;;;0.50;;
12129;SDS011;6128;59.340;18.040;2023-04-01T08:29:46;2.10;;;0.53;;
12129;SDS011;6128;59.340;18.040;2023-04-01T08:32:18;0.87;;;0.63;;
12129;SDS011;6128;59.340;18.040;2023-04-01T08:34:50;2.67;;;0.40;;
12129;SDS011;6128;59.340;18.040;2023-04-01T08:37:25;0.63;;;0.37;;
12129;SDS011;6128;59.340;18.040;2023-04-01T08:39:58;1.33;;;0.57;;
12129;SDS011;6128;59.340;18.040;2023-04-01T08:42:39;0.67;;;0.40;;
12129;SDS011;6128;59.340;18.040;2023-04-01T08:45:20;1.47;;;0.57;;
12129;SDS011;6128;59.340;18.040;2023-04-01T08:50:53;2.93;;;0.60;;
12129;SDS011;6128;59.340;18.040;2023-04-01T08:53:34;2.60;;;0.70;;
12129;SDS011;6128;59.340;18.040;2023-04-01T08:56:18;1.03;;;0.60;;
12129;SDS011;6128;59.340;18.040;2023-04-01T08:59:03;1.63;;;0.53;;
12129;SDS011;6128;59.340;18.040;2023-04-01T09:01:49;1.80;;;0.63;;
12129;SDS011;6128;59.340;18.040;2023-04-01T09:04:38;0.60;;;0.30;;
12129;SDS011;6128;59.340;18.040;2023-04-01T09:07:23;1.90;;;0.50;;
12129;SDS011;6128;59.340;18.040;2023-04-01T09:10:10;1.40;;;0.40;;
12129;SDS011;6128;59.340;18.040;2023-04-01T09:16:00;0.97;;;0.40;;
12129;SDS011;6128;59.340;18.040;2023-04-01T09:18:44;1.27;;;0.53;;
12129;SDS011;6128;59.340;18.040;2023-04-01T09:24:24;2.33;;;0.67;;
12129;SDS011;6128;59.340;18.040;2023-04-01T09:27:05;0.73;;;0.50;;
12129;SDS011;6128;59.340;18.040;2023-04-01T09:29:50;1.37;;;0.60;;
12129;SDS011;6128;59.340;18.040;2023-04-01T09:35:39;1.27;;;0.50;;
12129;SDS011;6128;59.340;18.040;2023-04-01T09:38:23;0.90;;;0.50;;
12129;SDS011;6128;59.340;18.040;2023-04-01T09:40:56;1.10;;;0.60;;
12129;SDS011;6128;59.340;18.040;2023-04-01T09:43:26;0.97;;;0.70;;
12129;SDS011;6128;59.340;18.040;2023-04-01T09:49:04;0.47;;;0.47;;
12129;SDS011;6128;59.340;18.040;2023-04-01T09:51:54;1.23;;;0.60;;
12129;SDS011;6128;59.340;18.040;2023-04-01T09:54:35;1.10;;;0.50;;
12129;SDS011;6128;59.340;18.040;2023-04-01T09:57:30;1.20;;;0.53;;
12129;SDS011;6128;59.340;18.040;2023-04-01T10:00:24;1.03;;;0.60;;
12129;SDS011;6128;59.340;18.040;2023-04-01T10:03:20;1.70;;;0.70;;
12129;SDS011;6128;59.340;18.040;2023-04-01T10:12:40;0.67;;;0.40;;
12129;SDS011;6128;59.340;18.040;2023-04-01T10:15:39;0.50;;;0.40;;
12129;SDS011;6128;59.340;18.040;2023-04-01T10:18:36;0.77;;;0.40;;
12129;SDS011;6128;59.340;18.040;2023-04-01T10:30:48;0.80;;;0.20;;
12129;SDS011;6128;59.340;18.040;2023-04-01T10:36:48;0.20;;;0.20;;
12129;SDS011;6128;59.340;18.040;2023-04-01T10:39:33;1.00;;;0.70;;
12129;SDS011;6128;59.340;18.040;2023-04-01T10:45:56;1.27;;;0.23;;
12129;SDS011;6128;59.340;18.040;2023-04-01T10:49:01;0.47;;;0.33;;
12129;SDS011;6128;59.340;18.040;2023-04-01T10:52:02;1.50;;;0.20;;
12129;SDS011;6128;59.340;18.040;2023-04-01T10:54:56;1.30;;;0.30;;
12129;SDS011;6128;59.340;18.040;2023-04-01T10:58:05;0.87;;;0.40;;
12129;SDS011;6128;59.340;18.040;2023-04-01T11:01:02;2.13;;;0.30;;
12129;SDS011;6128;59.340;18.040;2023-04-01T11:07:22;1.27;;;0.30;;
12129;SDS011;6128;59.340;18.040;2023-04-01T11:10:21;0.37;;;0.37;;
12129;SDS011;6128;59.340;18.040;2023-04-01T11:13:28;1.57;;;0.20;;
12129;SDS011;6128;59.340;18.040;2023-04-01T11:25:55;0.17;;;0.13;;
12129;SDS011;6128;59.340;18.040;2023-04-01T11:28:47;0.40;;;0.20;;
12129;SDS011;6128;59.340;18.040;2023-04-01T11:31:45;0.93;;;0.30;;
12129;SDS011;6128;59.340;18.040;2023-04-01T11:34:28;1.33;;;0.13;;
12129;SDS011;6128;59.340;18.040;2023-04-01T11:37:06;1.13;;;0.10;;
12129;SDS011;6128;59.340;18.040;2023-04-01T11:39:43;0.40;;;0.20;;
12129;SDS011;6128;59.340;18.040;2023-04-01T11:42:21;0.10;;;0.10;;
12129;SDS011;6128;59.340;18.040;2023-04-01T11:44:58;0.20;;;0.20;;
12129;SDS011;6128;59.340;18.040;2023-04-01T11:47:44;1.33;;;0.30;;
12129;SDS011;6128;59.340;18.040;2023-04-01T11:50:35;1.23;;;0.20;;
12129;SDS011;6128;59.340;18.040;2023-04-01T11:53:14;1.17;;;0.30;;
12129;SDS011;6128;59.340;18.040;2023-04-01T11:55:51;0.50;;;0.13;;
12129;SDS011;6128;59.340;18.040;2023-04-01T12:01:36;0.30;;;0.20;;
12129;SDS011;6128;59.340;18.040;2023-04-01T12:07:44;0.30;;;0.10;;
12129;SDS011;6128;59.340;18.040;2023-04-01T12:10:24;1.50;;;0.30;;
12129;SDS011;6128;59.340;18.040;2023-04-01T12:13:02;0.50;;;0.20;;
12129;SDS011;6128;59.340;18.040;2023-04-01T12:15:36;2.10;;;0.33;;
12129;SDS011;6128;59.340;18.040;2023-04-01T12:18:20;0.60;;;0.20;;
12129;SDS011;6128;59.340;18.040;2023-04-01T12:20:54;0.80;;;0.33;;
12129;SDS011;6128;59.340;18.040;2023-04-01T12:26:26;0.20;;;0.20;;
12129;SDS011;6128;59.340;18.040;2023-04-01T12:29:12;0.30;;;0.17;;
12129;SDS011;6128;59.340;18.040;2023-04-01T12:31:56;0.90;;;0.70;;
12129;SDS011;6128;59.340;18.040;2023-04-01T12:34:36;0.20;;;0.13;;
12129;SDS011;6128;59.340;18.040;2023-04-01T12:37:18;0.93;;;0.20;;
12129;SDS011;6128;59.340;18.040;2023-04-01T12:40:01;0.20;;;0.20;;
12129;SDS011;6128;59.340;18.040;2023-04-01T12:42:46;0.37;;;0.20;;
12129;SDS011;6128;59.340;18.040;2023-04-01T12:45:29;0.37;;;0.30;;
12129;SDS011;6128;59.340;18.040;2023-04-01T12:48:06;3.70;;;0.47;;
12129;SDS011;6128;59.340;18.040;2023-04-01T12:51:03;0.20;;;0.20;;
12129;SDS011;6128;59.340;18.040;2023-04-01T12:54:05;0.20;;;0.20;;
12129;SDS011;6128;59.340;18.040;2023-04-01T12:56:56;0.60;;;0.20;;
12129;SDS011;6128;59.340;18.040;2023-04-01T12:59:46;0.63;;;0.37;;
12129;SDS011;6128;59.340;18.040;2023-04-01T13:02:28;1.03;;;0.20;;
12129;SDS011;6128;59.340;18.040;2023-04-01T13:05:20;0.10;;;0.10;;
12129;SDS011;6128;59.340;18.040;2023-04-01T13:08:08;1.40;;;0.20;;
12129;SDS011;6128;59.340;18.040;2023-04-01T13:10:56;1.00;;;0.20;;
12129;SDS011;6128;59.340;18.040;2023-04-01T13:16:39;1.43;;;0.20;;
12129;SDS011;6128;59.340;18.040;2023-04-01T13:19:13;0.93;;;0.10;;
12129;SDS011;6128;59.340;18.040;2023-04-01T13:21:49;0.20;;;0.20;;
12129;SDS011;6128;59.340;18.040;2023-04-01T13:24:28;0.53;;;0.30;;
12129;SDS011;6128;59.340;18.040;2023-04-01T13:27:04;0.30;;;0.30;;
12129;SDS011;6128;59.340;18.040;2023-04-01T13:29:38;0.30;;;0.20;;
12129;SDS011;6128;59.340;18.040;2023-04-01T13:32:17;0.30;;;0.20;;
12129;SDS011;6128;59.340;18.040;2023-04-01T13:34:53;0.60;;;0.43;;
12129;SDS011;6128;59.340;18.040;2023-04-01T13:37:39;0.57;;;0.20;;
12129;SDS011;6128;59.340;18.040;2023-04-01T13:40:28;0.30;;;0.27;;
12129;SDS011;6128;59.340;18.040;2023-04-01T13:43:04;0.10;;;0.10;;
12129;SDS011;6128;59.340;18.040;2023-04-01T13:45:46;0.33;;;0.20;;
12129;SDS011;6128;59.340;18.040;2023-04-01T13:48:29;0.27;;;0.17;;
12129;SDS011;6128;59.340;18.040;2023-04-01T13:51:10;1.47;;;0.30;;
12129;SDS011;6128;59.340;18.040;2023-04-01T13:53:53;0.40;;;0.27;;
12129;SDS011;6128;59.340;18.040;2023-04-01T13:56:50;0.63;;;0.20;;
12129;SDS011;6128;59.340;18.040;2023-04-01T14:05:32;1.13;;;0.30;;
12129;SDS011;6128;59.340;18.040;2023-04-01T14:08:17;0.30;;;0.30;;
12129;SDS011;6128;59.340;18.040;2023-04-01T14:10:57;1.50;;;0.50;;
12129;SDS011;6128;59.340;18.040;2023-04-01T14:13:36;0.63;;;0.30;;
12129;SDS011;6128;59.340;18.040;2023-04-01T14:16:13;0.63;;;0.30;;
12129;SDS011;6128;59.340;18.040;2023-04-01T14:18:55;1.70;;;0.50;;
12129;SDS011;6128;59.340;18.040;2023-04-01T14:21:35;1.00;;;0.40;;
12129;SDS011;6128;59.340;18.040;2023-04-01T14:27:09;0.63;;;0.27;;
12129;SDS011;6128;59.340;18.040;2023-04-01T14:29:59;1.10;;;0.30;;
12129;SDS011;6128;59.340;18.040;2023-04-01T14:32:40;0.50;;;0.20;;
12129;SDS011;6128;59.340;18.040;2023-04-01T14:35:25;2.23;;;0.30;;
12129;SDS011;6128;59.340;18.040;2023-04-01T14:38:15;0.40;;;0.20;;
12129;SDS011;6128;59.340;18.040;2023-04-01T14:40:57;0.60;;;0.27;;
12129;SDS011;6128;59.340;18.040;2023-04-01T14:49:30;6.63;;;0.40;;
12129;SDS011;6128;59.340;18.040;2023-04-01T14:52:05;1.13;;;0.30;;
12129;SDS011;6128;59.340;18.040;2023-04-01T14:54:41;1.50;;;0.20;;
12129;SDS011;6128;59.340;18.040;2023-04-01T14:57:11;0.60;;;0.20;;
12129;SDS011;6128;59.340;18.040;2023-04-01T14:59:40;0.50;;;0.20;;
12129;SDS011;6128;59.340;18.040;2023-04-01T15:02:15;0.50;;;0.33;;
12129;SDS011;6128;59.340;18.040;2023-04-01T15:05:02;3.03;;;0.43;;
12129;SDS011;6128;59.340;18.040;2023-04-01T15:07:52;0.40;;;0.30;;
12129;SDS011;6128;59.340;18.040;2023-04-01T15:10:32;0.67;;;0.33;;
12129;SDS011;6128;59.340;18.040;2023-04-01T15:13:13;0.80;;;0.30;;
12129;SDS011;6128;59.340;18.040;2023-04-01T15:15:57;1.93;;;0.30;;
12129;SDS011;6128;59.340;18.040;2023-04-01T15:18:34;1.60;;;0.40;;
12129;SDS011;6128;59.340;18.040;2023-04-01T15:21:15;1.63;;;0.40;;
12129;SDS011;6128;59.340;18.040;2023-04-01T15:23:53;3.13;;;0.50;;
12129;SDS011;6128;59.340;18.040;2023-04-01T15:26:30;1.40;;;0.40;;
12129;SDS011;6128;59.340;18.040;2023-04-01T15:29:27;0.40;;;0.20;;
12129;SDS011;6128;59.340;18.040;2023-04-01T15:32:17;2.17;;;0.40;;
12129;SDS011;6128;59.340;18.040;2023-04-01T15:34:50;0.87;;;0.20;;
12129;SDS011;6128;59.340;18.040;2023-04-01T15:37:27;1.70;;;0.40;;
12129;SDS011;6128;59.340;18.040;2023-04-01T15:40:11;0.67;;;0.40;;
12129;SDS011;6128;59.340;18.040;2023-04-01T15:42:54;0.40;;;0.30;;
12129;SDS011;6128;59.340;18.040;2023-04-01T15:45:38;2.27;;;0.40;;
12129;SDS011;6128;59.340;18.040;2023-04-01T15:48:28;1.03;;;0.40;;
12129;SDS011;6128;59.340;18.040;2023-04-01T15:51:21;1.80;;;0.40;;
12129;SDS011;6128;59.340;18.040;2023-04-01T15:54:21;0.60;;;0.60;;
12129;SDS011;6128;59.340;18.040;2023-04-01T15:57:02;1.10;;;0.50;;
12129;SDS011;6128;59.340;18.040;2023-04-01T16:02:38;0.63;;;0.30;;
12129;SDS011;6128;59.340;18.040;2023-04-01T16:05:20;1.10;;;0.50;;
12129;SDS011;6128;59.340;18.040;2023-04-01T16:07:55;0.40;;;0.33;;
12129;SDS011;6128;59.340;18.040;2023-04-01T16:10:38;1.70;;;0.40;;
12129;SDS011;6128;59.340;18.040;2023-04-01T16:13:30;1.57;;;0.40;;
12129;SDS011;6128;59.340;18.040;2023-04-01T16:16:13;1.77;;;0.50;;
12129;SDS011;6128;59.340;18.040;2023-04-01T16:21:41;2.50;;;0.77;;
12129;SDS011;6128;59.340;18.040;2023-04-01T16:24:14;0.63;;;0.30;;
12129;SDS011;6128;59.340;18.040;2023-04-01T16:26:48;2.73;;;1.30;;
12129;SDS011;6128;59.340;18.040;2023-04-01T16:29:22;1.70;;;1.20;;
12129;SDS011;6128;59.340;18.040;2023-04-01T16:31:55;2.60;;;0.77;;
12129;SDS011;6128;59.340;18.040;2023-04-01T16:34:34;2.60;;;0.73;;
12129;SDS011;6128;59.340;18.040;2023-04-01T16:37:09;3.63;;;0.70;;
12129;SDS011;6128;59.340;18.040;2023-04-01T16:39:41;1.83;;;0.50;;
12129;SDS011;6128;59.340;18.040;2023-04-01T16:42:16;1.93;;;0.60;;
12129;SDS011;6128;59.340;18.040;2023-04-01T16:44:52;2.90;;;0.70;;
12129;SDS011;6128;59.340;18.040;2023-04-01T16:47:23;2.03;;;0.80;;
12129;SDS011;6128;59.340;18.040;2023-04-01T16:49:56;0.83;;;0.50;;
12129;SDS011;6128;59.340;18.040;2023-04-01T16:52:36;2.13;;;0.50;;
12129;SDS011;6128;59.340;18.040;2023-04-01T16:55:15;3.77;;;1.07;;
12129;SDS011;6128;59.340;18.040;2023-04-01T16:57:46;0.93;;;0.50;;
12129;SDS011;6128;59.340;18.040;2023-04-01T17:00:21;1.80;;;0.73;;
12129;SDS011;6128;59.340;18.040;2023-04-01T17:02:54;3.53;;;1.00;;
12129;SDS011;6128;59.340;18.040;2023-04-01T17:05:36;0.73;;;0.53;;
12129;SDS011;6128;59.340;18.040;2023-04-01T17:08:13;2.13;;;0.70;;
12129;SDS011;6128;59.340;18.040;2023-04-01T17:10:49;1.63;;;0.93;;
12129;SDS011;6128;59.340;18.040;2023-04-01T17:13:29;2.00;;;0.97;;
12129;SDS011;6128;59.340;18.040;2023-04-01T17:16:06;1.57;;;0.97;;
12129;SDS011;6128;59.340;18.040;2023-04-01T17:18:44;2.07;;;0.93;;